createdAt,value
2022-12-13T00:02:03.130Z,16.58
2022-12-13T00:04:33.211Z,16.55
2022-12-13T00:07:02.808Z,16.52
2022-12-13T00:09:32.585Z,16.52
2022-12-13T00:12:02.379Z,16.50
2022-12-13T00:14:33.699Z,16.47
2022-12-13T00:17:03.646Z,16.46
2022-12-13T00:19:33.037Z,16.42
2022-12-13T00:22:02.963Z,16.25
2022-12-13T00:24:32.577Z,16.35
2022-12-13T00:27:02.183Z,16.34
2022-12-13T00:29:32.302Z,16.40
2022-12-13T00:32:01.884Z,16.34
2022-12-13T00:34:32.069Z,16.41
2022-12-13T00:37:01.803Z,16.39
2022-12-13T00:39:31.345Z,16.43
2022-12-13T00:42:01.433Z,16.46
2022-12-13T00:44:32.236Z,16.50
2022-12-13T00:47:02.226Z,16.48
2022-12-13T00:49:31.693Z,16.53
2022-12-13T00:52:01.330Z,16.51
2022-12-13T00:54:31.039Z,16.49
2022-12-13T00:57:00.665Z,16.54
2022-12-13T00:59:30.362Z,16.50
2022-12-13T01:02:00.115Z,16.55
2022-12-13T01:04:29.821Z,16.54
2022-12-13T01:06:59.439Z,16.43
2022-12-13T01:09:30.943Z,16.52
2022-12-13T01:12:02.986Z,16.65
2022-12-13T01:14:32.902Z,16.54
2022-12-13T01:17:02.969Z,16.54
2022-12-13T01:19:33.950Z,16.63
2022-12-13T01:22:08.558Z,16.69
2022-12-13T01:24:38.229Z,16.60
2022-12-13T01:27:08.471Z,16.62
2022-12-13T01:29:38.790Z,16.55
2022-12-13T01:32:08.469Z,16.55
2022-12-13T01:34:38.413Z,16.55
2022-12-13T01:37:08.224Z,16.55
2022-12-13T01:39:37.831Z,16.52
2022-12-13T01:42:08.383Z,16.59
2022-12-13T01:45:08.104Z,16.80
2022-12-13T01:48:07.127Z,16.71
2022-12-13T01:50:42.188Z,16.59
2022-12-13T01:53:20.569Z,16.56
2022-12-13T01:55:56.423Z,16.49
2022-12-13T01:58:27.897Z,16.46
2022-12-13T02:00:58.270Z,16.45
2022-12-13T02:03:28.667Z,16.44
2022-12-13T02:06:12.219Z,16.55
2022-12-13T02:08:43.359Z,16.40
2022-12-13T02:11:14.540Z,16.44
2022-12-13T02:13:44.729Z,16.40
2022-12-13T02:16:22.443Z,16.38
2022-12-13T02:19:18.307Z,16.44
2022-12-13T02:22:32.047Z,16.54
2022-12-13T02:25:28.906Z,16.46
2022-12-13T02:28:30.614Z,16.44
2022-12-13T02:31:39.850Z,16.49
2022-12-13T02:34:22.351Z,16.47
2022-12-13T02:37:24.247Z,16.53
2022-12-13T02:39:59.507Z,16.58
2022-12-13T02:42:39.523Z,16.57
2022-12-13T02:45:26.748Z,16.66
2022-12-13T02:47:59.773Z,16.48
2022-12-13T02:50:30.481Z,16.45
2022-12-13T02:53:02.384Z,16.43
2022-12-13T02:55:33.567Z,16.45
2022-12-13T02:58:03.628Z,16.49
2022-12-13T03:00:45.398Z,16.71
2022-12-13T03:03:27.571Z,16.69
2022-12-13T03:06:26.009Z,16.88
2022-12-13T03:09:16.751Z,16.88
2022-12-13T03:12:25.425Z,16.98
2022-12-13T03:15:01.211Z,17.01
2022-12-13T03:17:39.175Z,16.98
2022-12-13T03:20:22.224Z,16.82
2022-12-13T03:22:54.439Z,16.98
2022-12-13T03:25:32.171Z,17.02
2022-12-13T03:28:03.643Z,17.10
2022-12-13T03:30:34.668Z,17.20
2022-12-13T03:33:04.439Z,17.19
2022-12-13T03:35:45.267Z,17.20
2022-12-13T03:38:22.314Z,17.34
2022-12-13T03:40:59.371Z,17.49
2022-12-13T03:43:30.387Z,17.46
2022-12-13T03:46:00.196Z,17.23
2022-12-13T03:48:30.006Z,17.43
2022-12-13T03:50:59.964Z,17.37
2022-12-13T03:53:33.460Z,17.39
2022-12-13T03:56:06.466Z,17.72
2022-12-13T03:58:38.333Z,17.78
2022-12-13T04:01:10.741Z,17.74
2022-12-13T04:03:41.899Z,17.71
2022-12-13T04:06:21.968Z,17.84
2022-12-13T04:08:53.860Z,18.03
2022-12-13T04:11:43.239Z,17.95
2022-12-13T04:14:22.335Z,18.10
2022-12-13T04:16:53.849Z,18.03
2022-12-13T04:19:24.299Z,18.21
2022-12-13T04:21:55.703Z,18.37
2022-12-13T04:24:31.929Z,18.44
2022-12-13T04:27:03.402Z,18.53
2022-12-13T04:29:34.501Z,18.49
2022-12-13T04:32:26.521Z,18.42
2022-12-13T04:35:01.029Z,18.40
2022-12-13T04:37:43.379Z,18.79
2022-12-13T04:40:14.013Z,18.50
2022-12-13T04:42:54.116Z,18.89
2022-12-13T04:45:24.386Z,18.84
2022-12-13T04:47:54.236Z,18.94
2022-12-13T04:50:23.671Z,19.14
2022-12-13T04:52:53.687Z,19.22
2022-12-13T04:55:23.214Z,19.20
2022-12-13T04:57:53.447Z,19.35
2022-12-13T05:00:24.196Z,19.34
2022-12-13T05:02:54.373Z,19.47
2022-12-13T05:05:24.322Z,19.54
2022-12-13T05:07:53.769Z,19.66
2022-12-13T05:10:34.227Z,19.76
2022-12-13T05:13:08.225Z,19.84
2022-12-13T05:15:39.197Z,19.94
2022-12-13T05:18:10.636Z,20.01
2022-12-13T05:20:41.500Z,20.03
2022-12-13T05:23:11.182Z,20.14
2022-12-13T05:25:40.603Z,19.94
2022-12-13T05:28:27.445Z,20.29
2022-12-13T05:31:00.044Z,20.43
2022-12-13T05:33:29.999Z,20.54
2022-12-13T05:36:02.056Z,20.49
2022-12-13T05:38:32.825Z,20.57
2022-12-13T05:41:02.597Z,20.62
2022-12-13T05:43:42.395Z,20.75
2022-12-13T05:46:13.615Z,20.85
2022-12-13T05:48:44.774Z,20.97
2022-12-13T05:51:14.730Z,21.04
2022-12-13T05:53:47.310Z,21.06
2022-12-13T05:56:22.348Z,21.15
2022-12-13T05:58:53.637Z,21.20
2022-12-13T06:01:24.668Z,21.36
2022-12-13T06:03:54.789Z,21.37
2022-12-13T06:06:24.673Z,21.39
2022-12-13T06:08:54.491Z,21.53
2022-12-13T06:11:31.689Z,21.59
2022-12-13T06:14:02.310Z,21.64
2022-12-13T06:16:32.046Z,21.64
2022-12-13T06:19:04.687Z,21.85
2022-12-13T06:21:43.854Z,21.91
2022-12-13T06:24:20.942Z,22.07
2022-12-13T06:26:52.799Z,22.10
2022-12-13T06:29:25.686Z,22.10
2022-12-13T06:32:01.170Z,22.18
2022-12-13T06:34:36.093Z,22.19
2022-12-13T06:37:10.330Z,22.27
2022-12-13T06:39:41.042Z,22.31
2022-12-13T06:42:21.457Z,22.49
2022-12-13T06:44:55.751Z,22.39
2022-12-13T06:47:32.041Z,22.62
2022-12-13T06:50:05.016Z,22.61
2022-12-13T06:52:36.414Z,22.72
2022-12-13T06:55:06.809Z,22.78
2022-12-13T06:57:37.321Z,22.74
2022-12-13T07:00:11.785Z,22.85
2022-12-13T07:02:41.446Z,22.84
2022-12-13T07:05:12.509Z,22.93
2022-12-13T07:07:42.126Z,22.90
2022-12-13T07:10:21.520Z,22.99
2022-12-13T07:12:52.126Z,23.00
2022-12-13T07:15:22.312Z,23.00
2022-12-13T07:17:53.259Z,23.08
2022-12-13T07:20:24.857Z,23.13
2022-12-13T07:22:59.086Z,23.17
2022-12-13T07:25:29.833Z,23.17
2022-12-13T07:28:04.597Z,23.33
2022-12-13T07:30:41.695Z,23.44
2022-12-13T07:33:12.884Z,23.34
2022-12-13T07:36:19.132Z,23.50
2022-12-13T07:38:57.121Z,23.42
2022-12-13T07:41:28.492Z,23.64
2022-12-13T07:43:58.576Z,23.59
2022-12-13T07:46:33.275Z,23.50
2022-12-13T07:49:04.335Z,23.62
2022-12-13T07:51:36.568Z,23.75
2022-12-13T07:54:09.885Z,23.58
2022-12-13T07:56:39.647Z,23.76
2022-12-13T07:59:11.187Z,23.65
2022-12-13T08:01:41.084Z,23.82
2022-12-13T08:04:11.522Z,23.85
2022-12-13T08:06:46.102Z,23.83
2022-12-13T08:09:16.195Z,23.71
2022-12-13T08:11:46.219Z,23.90
2022-12-13T08:14:16.039Z,23.92
2022-12-13T08:16:45.927Z,23.95
2022-12-13T08:19:16.058Z,23.93
2022-12-13T08:21:55.246Z,23.80
2022-12-13T08:24:27.456Z,24.12
2022-12-13T08:27:02.372Z,24.07
2022-12-13T08:29:36.234Z,24.07
2022-12-13T08:32:09.679Z,24.11
2022-12-13T08:34:40.551Z,24.07
2022-12-13T08:37:10.468Z,24.10
2022-12-13T08:39:41.487Z,24.22
2022-12-13T08:42:19.346Z,24.25
2022-12-13T08:44:55.024Z,24.27
2022-12-13T08:47:27.449Z,24.42
2022-12-13T08:50:04.428Z,24.33
2022-12-13T08:52:40.589Z,24.31
2022-12-13T08:55:14.680Z,24.33
2022-12-13T08:57:45.918Z,24.12
2022-12-13T09:00:20.001Z,24.33
2022-12-13T09:02:50.038Z,24.22
2022-12-13T09:05:32.414Z,24.40
2022-12-13T09:08:23.007Z,24.40
2022-12-13T09:11:00.096Z,24.39
2022-12-13T09:13:32.935Z,24.37
2022-12-13T09:16:22.909Z,24.44
2022-12-13T09:18:57.003Z,24.39
2022-12-13T09:21:31.435Z,24.26
2022-12-13T09:24:02.780Z,24.43
2022-12-13T09:26:38.368Z,24.41
2022-12-13T09:29:10.942Z,24.42
2022-12-13T09:31:42.438Z,24.46
2022-12-13T09:34:13.941Z,24.41
2022-12-13T09:36:44.424Z,24.46
2022-12-13T09:39:14.267Z,24.45
2022-12-13T09:42:01.411Z,24.49
2022-12-13T09:44:43.826Z,24.52
2022-12-13T09:47:39.217Z,24.71
2022-12-13T09:50:40.429Z,24.61
2022-12-13T09:53:21.702Z,24.54
2022-12-13T09:55:53.534Z,24.45
2022-12-13T09:58:41.229Z,24.39
2022-12-13T10:01:13.744Z,24.51
2022-12-13T10:04:02.966Z,24.33
2022-12-13T10:06:35.853Z,24.37
2022-12-13T10:09:12.352Z,24.46
2022-12-13T10:11:53.918Z,24.40
2022-12-13T10:14:41.432Z,24.40
2022-12-13T10:17:17.777Z,24.42
2022-12-13T10:19:52.601Z,24.40
2022-12-13T10:22:26.783Z,24.40
2022-12-13T10:25:07.372Z,24.45
2022-12-13T10:27:42.869Z,24.36
2022-12-13T10:30:28.471Z,24.32
2022-12-13T10:33:07.455Z,24.38
2022-12-13T10:35:42.444Z,24.23
2022-12-13T10:38:18.329Z,24.30
2022-12-13T10:40:50.114Z,24.10
2022-12-13T10:43:31.498Z,24.08
2022-12-13T10:46:03.961Z,24.03
2022-12-13T10:48:48.388Z,24.14
2022-12-13T10:51:24.182Z,24.02
2022-12-13T10:54:01.635Z,24.08
2022-12-13T10:56:51.671Z,24.12
2022-12-13T10:59:29.224Z,23.87
2022-12-13T11:01:58.950Z,23.83
2022-12-13T11:04:37.284Z,23.85
2022-12-13T11:07:28.197Z,23.83
2022-12-13T11:10:05.651Z,23.69
2022-12-13T11:12:45.407Z,23.67
2022-12-13T11:15:30.558Z,23.71
2022-12-13T11:18:06.130Z,23.58
2022-12-13T11:20:39.118Z,23.55
2022-12-13T11:23:30.691Z,23.60
2022-12-13T11:26:06.925Z,23.42
2022-12-13T11:28:54.830Z,23.28
2022-12-13T11:31:30.656Z,23.35
2022-12-13T11:34:30.987Z,23.29
2022-12-13T11:37:28.553Z,23.33
2022-12-13T11:40:16.824Z,23.16
2022-12-13T11:42:53.744Z,23.07
2022-12-13T11:45:26.659Z,22.99
2022-12-13T11:48:03.074Z,22.85
2022-12-13T11:50:45.803Z,22.91
2022-12-13T11:53:21.845Z,22.86
2022-12-13T11:56:22.762Z,22.80
2022-12-13T11:59:20.709Z,22.73
2022-12-13T12:02:16.793Z,22.70
2022-12-13T12:04:58.076Z,22.49
2022-12-13T12:07:35.969Z,22.45
2022-12-13T12:10:29.511Z,22.37
2022-12-13T12:13:23.597Z,22.31
2022-12-13T12:16:21.459Z,22.27
2022-12-13T12:18:53.311Z,22.10
2022-12-13T12:22:12.029Z,22.16
2022-12-13T12:25:15.986Z,22.11
2022-12-13T12:28:30.390Z,22.07
2022-12-13T12:31:12.616Z,22.00
2022-12-13T12:33:58.028Z,21.90
2022-12-13T12:36:30.259Z,21.73
2022-12-13T12:39:12.328Z,21.69
2022-12-13T12:41:51.091Z,21.71
2022-12-13T12:44:35.695Z,21.64
2022-12-13T12:48:39.491Z,21.63
2022-12-13T12:50:45.897Z,21.55
2022-12-13T12:53:31.207Z,21.56
2022-12-13T12:56:24.187Z,21.57
2022-12-13T12:59:12.080Z,21.59
2022-12-13T13:01:54.862Z,21.52
2022-12-13T13:04:34.916Z,21.43
2022-12-13T13:07:23.354Z,21.28
2022-12-13T13:09:55.698Z,21.21
2022-12-13T13:12:29.942Z,21.20
2022-12-13T13:15:01.967Z,21.16
2022-12-13T13:17:31.590Z,21.10
2022-12-13T13:20:34.135Z,21.30
2022-12-13T13:23:38.621Z,21.21
2022-12-13T13:26:26.100Z,21.06
2022-12-13T13:28:56.174Z,20.95
2022-12-13T13:31:26.222Z,20.89
2022-12-13T13:33:55.940Z,20.75
2022-12-13T13:36:41.821Z,20.87
2022-12-13T13:40:00.618Z,20.82
2022-12-13T13:42:32.803Z,20.62
2022-12-13T13:45:02.369Z,20.75
2022-12-13T13:47:35.747Z,20.58
2022-12-13T13:50:18.785Z,20.70
2022-12-13T13:52:58.075Z,20.54
2022-12-13T13:55:39.799Z,20.55
2022-12-13T13:58:34.021Z,20.60
2022-12-13T14:01:36.565Z,20.65
2022-12-13T14:04:28.339Z,20.61
2022-12-13T14:07:33.929Z,20.59
2022-12-13T14:10:38.865Z,20.61
2022-12-13T14:13:34.445Z,20.61
2022-12-13T14:16:38.167Z,20.54
2022-12-13T14:19:45.831Z,20.45
2022-12-13T14:22:31.611Z,20.32
2022-12-13T14:25:13.466Z,20.24
2022-12-13T14:27:54.797Z,20.10
2022-12-13T14:30:26.870Z,20.07
2022-12-13T14:32:58.467Z,20.06
2022-12-13T14:35:33.712Z,20.15
2022-12-13T14:38:06.007Z,20.07
2022-12-13T14:40:48.688Z,20.08
2022-12-13T14:43:30.296Z,20.24
2022-12-13T14:46:06.600Z,20.22
2022-12-13T14:48:55.679Z,20.24
2022-12-13T14:51:35.035Z,20.25
2022-12-13T14:54:07.925Z,20.17
2022-12-13T14:56:55.228Z,20.12
2022-12-13T14:59:25.737Z,20.10
2022-12-13T15:02:00.980Z,20.24
2022-12-13T15:04:38.445Z,20.17
2022-12-13T15:07:31.635Z,20.25
2022-12-13T15:10:09.740Z,20.22
2022-12-13T15:12:44.882Z,20.17
2022-12-13T15:15:37.260Z,20.24
2022-12-13T15:18:20.724Z,20.19
2022-12-13T15:20:54.564Z,20.10
2022-12-13T15:23:34.939Z,20.15
2022-12-13T15:26:29.067Z,20.12
2022-12-13T15:29:09.406Z,20.11
2022-12-13T15:31:41.491Z,20.05
2022-12-13T15:34:30.548Z,20.22
2022-12-13T15:37:29.629Z,20.19
2022-12-13T15:40:10.419Z,20.15
2022-12-13T15:42:45.727Z,20.04
2022-12-13T15:45:22.957Z,20.11
2022-12-13T15:47:54.585Z,20.01
2022-12-13T15:50:47.224Z,20.02
2022-12-13T15:53:30.221Z,20.00
2022-12-13T15:56:04.748Z,19.85
2022-12-13T15:58:38.918Z,19.85
2022-12-13T16:01:08.922Z,19.81
2022-12-13T16:03:48.121Z,19.92
2022-12-13T16:06:23.362Z,19.90
2022-12-13T16:09:00.105Z,19.87
2022-12-13T16:12:05.720Z,19.95
2022-12-13T16:14:54.825Z,19.92
2022-12-13T16:17:56.097Z,19.79
2022-12-13T16:20:30.139Z,19.74
2022-12-13T16:23:08.778Z,19.69
2022-12-13T16:25:41.734Z,19.67
2022-12-13T16:28:17.432Z,19.69
2022-12-13T16:30:57.184Z,19.75
2022-12-13T16:33:28.620Z,19.61
2022-12-13T16:36:07.717Z,19.55
2022-12-13T16:38:38.651Z,19.56
2022-12-13T16:41:09.984Z,19.55
2022-12-13T16:43:54.846Z,19.66
2022-12-13T16:47:16.058Z,19.58
2022-12-13T16:49:26.426Z,19.59
2022-12-13T16:51:57.481Z,19.45
2022-12-13T16:54:28.584Z,19.40
2022-12-13T16:56:58.732Z,19.33
2022-12-13T16:59:30.725Z,19.46
2022-12-13T17:02:04.065Z,19.38
2022-12-13T17:04:35.004Z,19.44
2022-12-13T17:07:05.359Z,19.44
2022-12-13T17:09:36.628Z,19.42
2022-12-13T17:12:07.311Z,19.39
2022-12-13T17:14:37.182Z,19.31
2022-12-13T17:17:06.927Z,19.27
2022-12-13T17:19:37.429Z,19.24
2022-12-13T17:22:07.451Z,19.24
2022-12-13T17:24:37.496Z,19.17
2022-12-13T17:27:07.585Z,19.20
2022-12-13T17:29:39.352Z,19.18
2022-12-13T17:32:09.997Z,19.11
2022-12-13T17:34:39.874Z,19.11
2022-12-13T17:37:10.765Z,19.14
2022-12-13T17:39:41.179Z,19.08
2022-12-13T17:42:13.007Z,19.06
2022-12-13T17:44:44.244Z,19.00
2022-12-13T17:47:15.160Z,18.97
2022-12-13T17:49:48.344Z,18.92
2022-12-13T17:52:18.967Z,18.88
2022-12-13T17:54:49.636Z,18.80
2022-12-13T17:57:20.258Z,18.75
2022-12-13T17:59:50.802Z,18.75
2022-12-13T18:02:24.237Z,18.64
2022-12-13T18:04:54.195Z,18.57
2022-12-13T18:07:26.185Z,18.50
2022-12-13T18:09:56.003Z,18.51
2022-12-13T18:12:25.637Z,18.37
2022-12-13T18:14:55.752Z,18.38
2022-12-13T18:17:46.620Z,18.25
2022-12-13T18:20:16.006Z,18.31
2022-12-13T18:22:51.142Z,18.25
2022-12-13T18:25:21.282Z,18.18
2022-12-13T18:27:51.579Z,18.21
2022-12-13T18:30:23.243Z,18.37
2022-12-13T18:32:52.911Z,18.09
2022-12-13T18:35:22.558Z,18.06
2022-12-13T18:37:53.434Z,18.01
2022-12-13T18:40:23.202Z,17.92
2022-12-13T18:42:53.724Z,17.93
2022-12-13T18:45:23.350Z,17.86
2022-12-13T18:47:52.979Z,17.81
2022-12-13T18:50:22.969Z,17.83
2022-12-13T18:52:53.022Z,17.85
2022-12-13T18:55:22.728Z,17.77
2022-12-13T18:57:54.044Z,17.73
2022-12-13T19:00:25.324Z,17.76
2022-12-13T19:02:55.167Z,17.68
2022-12-13T19:05:25.126Z,17.60
2022-12-13T19:07:55.126Z,17.49
2022-12-13T19:10:24.923Z,17.42
2022-12-13T19:12:54.779Z,17.34
2022-12-13T19:15:24.521Z,17.29
2022-12-13T19:17:54.801Z,17.18
2022-12-13T19:20:24.645Z,17.30
2022-12-13T19:22:55.029Z,17.25
2022-12-13T19:25:24.838Z,17.26
2022-12-13T19:27:57.690Z,17.29
2022-12-13T19:30:28.013Z,17.26
2022-12-13T19:32:57.752Z,17.23
2022-12-13T19:35:27.699Z,17.13
2022-12-13T19:37:57.065Z,16.98
2022-12-13T19:40:26.685Z,16.99
2022-12-13T19:42:56.863Z,16.98
2022-12-13T19:45:26.356Z,17.00
2022-12-13T19:47:55.913Z,16.95
2022-12-13T19:50:25.909Z,16.89
2022-12-13T19:52:55.452Z,16.89
2022-12-13T19:55:24.809Z,16.82
2022-12-13T19:57:54.812Z,16.70
2022-12-13T20:00:24.536Z,16.68
2022-12-13T20:02:54.683Z,16.69
2022-12-13T20:05:24.841Z,16.69
2022-12-13T20:07:59.139Z,16.58
2022-12-13T20:10:29.774Z,16.52
2022-12-13T20:12:59.653Z,16.43
2022-12-13T20:15:29.864Z,16.44
2022-12-13T20:17:59.658Z,16.38
2022-12-13T20:20:46.977Z,16.38
2022-12-13T20:23:20.522Z,16.30
2022-12-13T20:26:00.143Z,16.31
2022-12-13T20:28:30.268Z,16.22
2022-12-13T20:31:17.287Z,16.37
2022-12-13T20:33:47.228Z,16.23
2022-12-13T20:36:25.801Z,16.28
2022-12-13T20:39:01.998Z,16.33
2022-12-13T20:41:34.339Z,16.24
2022-12-13T20:44:06.330Z,16.24
2022-12-13T20:46:36.344Z,16.18
2022-12-13T20:49:08.425Z,16.29
2022-12-13T20:51:42.616Z,16.32
2022-12-13T20:54:12.371Z,16.20
2022-12-13T20:56:42.234Z,16.17
2022-12-13T20:59:14.909Z,16.28
2022-12-13T21:01:48.782Z,16.34
2022-12-13T21:04:19.738Z,16.24
2022-12-13T21:06:49.590Z,16.28
2022-12-13T21:09:19.397Z,16.17
2022-12-13T21:11:51.351Z,16.16
2022-12-13T21:14:26.608Z,16.16
2022-12-13T21:17:01.584Z,16.07
2022-12-13T21:19:39.318Z,16.00
2022-12-13T21:22:10.104Z,15.98
2022-12-13T21:24:39.895Z,15.76
2022-12-13T21:27:09.617Z,15.88
2022-12-13T21:29:39.477Z,15.89
2022-12-13T21:32:09.219Z,15.92
2022-12-13T21:34:38.741Z,15.90
2022-12-13T21:37:08.586Z,15.84
2022-12-13T21:39:41.158Z,15.81
2022-12-13T21:42:11.310Z,15.72
2022-12-13T21:44:40.908Z,15.69
2022-12-13T21:47:12.204Z,15.67
2022-12-13T21:49:48.824Z,15.74
2022-12-13T21:52:18.755Z,15.65
2022-12-13T21:54:48.294Z,15.64
2022-12-13T21:57:38.176Z,15.64
2022-12-13T22:00:09.476Z,15.60
2022-12-13T22:02:42.057Z,15.57
2022-12-13T22:05:12.327Z,15.54
2022-12-13T22:07:41.931Z,15.57
2022-12-13T22:10:11.500Z,15.63
2022-12-13T22:12:43.096Z,15.68
2022-12-13T22:15:17.716Z,15.74
2022-12-13T22:17:47.642Z,15.63
2022-12-13T22:20:17.198Z,15.67
2022-12-13T22:22:49.747Z,15.63
2022-12-13T22:25:19.914Z,15.68
2022-12-13T22:27:49.728Z,15.67
2022-12-13T22:30:19.091Z,15.67
2022-12-13T22:32:48.710Z,15.64
2022-12-13T22:35:18.271Z,15.63
2022-12-13T22:37:51.040Z,15.68
2022-12-13T22:40:20.855Z,15.58
2022-12-13T22:42:50.132Z,15.51
2022-12-13T22:45:19.795Z,15.50
2022-12-13T22:47:50.449Z,15.51
2022-12-13T22:50:21.818Z,15.49
2022-12-13T22:52:51.772Z,15.46
2022-12-13T22:55:21.746Z,15.31
2022-12-13T22:57:54.353Z,15.32
2022-12-13T23:00:24.090Z,15.24
2022-12-13T23:02:56.589Z,15.30
2022-12-13T23:05:25.730Z,15.40
2022-12-13T23:07:55.684Z,15.08
2022-12-13T23:10:43.540Z,15.08
2022-12-13T23:13:15.916Z,15.17
2022-12-13T23:15:49.352Z,15.07
2022-12-13T23:18:19.602Z,15.09
2022-12-13T23:20:48.937Z,15.12
2022-12-13T23:23:18.749Z,15.13
2022-12-13T23:25:48.852Z,15.05
2022-12-13T23:28:19.067Z,15.08
2022-12-13T23:30:48.860Z,15.06
2022-12-13T23:33:18.866Z,15.03
2022-12-13T23:35:48.053Z,15.03
2022-12-13T23:38:18.086Z,14.99
2022-12-13T23:40:47.700Z,14.94
2022-12-13T23:43:17.964Z,14.90
2022-12-13T23:45:47.582Z,14.92
2022-12-13T23:48:19.191Z,14.91
2022-12-13T23:50:52.350Z,14.98
2022-12-13T23:53:22.879Z,14.97
2022-12-13T23:55:52.844Z,14.94
2022-12-13T23:58:24.008Z,14.96
